Time;durP1;ratioP1;P1;durP2;ratioP2;P2;SDS_P1;SDS_P2;PMS_P1;PMS_P2;Temp;Humidity;BMP_temperature;BMP_pressure;BME280_temperature;BME280_humidity;BME280_pressure;Samples;Min_cycle;Max_cycle;Signal;HPM_P1;HPM_P2
2023/07/28 00:00:54;;;;;;;25.25;10.88;;;;;;;;;;5024544;28;20040;-74
2023/07/28 00:03:20;;;;;;;26.40;9.80;;;;;;;;;;5024400;28;20037;-74
2023/07/28 00:05:46;;;;;;;32.80;10.93;;;;;;;;;;5022996;28;20106;-74
2023/07/28 00:08:12;;;;;;;31.92;10.93;;;;;;;;;;4987542;28;20041;-74
2023/07/28 00:10:44;;;;;;;42.97;11.27;;;;;;;;;;5023631;28;20047;-73
2023/07/28 00:13:10;;;;;;;29.23;11.52;;;;;;;;;;5023762;28;20148;-73
2023/07/28 00:15:36;;;;;;;31.48;12.95;;;;;;;;;;5021263;28;20030;-73
2023/07/28 00:18:02;;;;;;;40.10;14.10;;;;;;;;;;5023226;28;20037;-73
2023/07/28 00:20:29;;;;;;;36.22;13.30;;;;;;;;;;5022918;28;20025;-73
2023/07/28 00:22:55;;;;;;;35.60;13.45;;;;;;;;;;5022507;28;20037;-73
2023/07/28 00:25:22;;;;;;;32.03;13.18;;;;;;;;;;5023423;28;20104;-73
2023/07/28 00:27:48;;;;;;;40.42;14.05;;;;;;;;;;5022540;28;20825;-73
2023/07/28 00:30:14;;;;;;;39.70;13.15;;;;;;;;;;5005632;28;20522;-73
2023/07/28 00:32:40;;;;;;;36.20;14.43;;;;;;;;;;5022399;28;20082;-73
2023/07/28 00:35:06;;;;;;;39.05;14.13;;;;;;;;;;5024197;28;20057;-73
2023/07/28 00:37:32;;;;;;;36.70;14.52;;;;;;;;;;5005064;28;20046;-72
2023/07/28 00:39:58;;;;;;;33.90;14.93;;;;;;;;;;5011412;28;20033;-72
2023/07/28 00:42:24;;;;;;;37.88;13.52;;;;;;;;;;5025944;28;20487;-72
2023/07/28 00:44:50;;;;;;;44.03;14.48;;;;;;;;;;5025962;28;20040;-72
2023/07/28 00:47:16;;;;;;;35.05;13.13;;;;;;;;;;5027389;28;20041;-73
2023/07/28 00:49:42;;;;;;;43.97;14.80;;;;;;;;;;5023026;28;20526;-72
2023/07/28 00:52:08;;;;;;;32.42;13.68;;;;;;;;;;5027964;28;20048;-72
2023/07/28 00:54:35;;;;;;;35.25;12.85;;;;;;;;;;5023287;28;20088;-72
2023/07/28 00:57:01;;;;;;;36.67;12.27;;;;;;;;;;5029135;28;20041;-72
2023/07/28 00:59:27;;;;;;;30.33;10.98;;;;;;;;;;5028229;28;20433;-72
2023/07/28 01:01:53;;;;;;;29.60;11.73;;;;;;;;;;5009470;28;20042;-72
2023/07/28 01:04:20;;;;;;;30.52;12.40;;;;;;;;;;5024507;28;20044;-74
2023/07/28 01:06:56;;;;;;;27.45;11.70;;;;;;;;;;5025422;28;20095;-73
2023/07/28 01:09:25;;;;;;;29.60;12.20;;;;;;;;;;5022633;28;20141;-73
2023/07/28 01:11:58;;;;;;;30.88;11.52;;;;;;;;;;5006361;28;20259;-72
2023/07/28 01:14:25;;;;;;;32.67;14.90;;;;;;;;;;5024545;28;20038;-72
2023/07/28 01:16:51;;;;;;;34.72;11.50;;;;;;;;;;5019056;28;20041;-73
2023/07/28 01:19:18;;;;;;;37.13;11.45;;;;;;;;;;5024962;28;20034;-72
2023/07/28 01:21:46;;;;;;;24.75;10.57;;;;;;;;;;5025800;28;20043;-74
2023/07/28 01:24:15;;;;;;;29.42;10.90;;;;;;;;;;5023610;28;20585;-74
2023/07/28 01:26:41;;;;;;;31.95;11.88;;;;;;;;;;5022988;28;20034;-74
2023/07/28 01:29:08;;;;;;;33.53;11.57;;;;;;;;;;5028783;28;20485;-74
2023/07/28 01:31:34;;;;;;;37.63;12.02;;;;;;;;;;5024758;28;20074;-74
2023/07/28 01:34:00;;;;;;;32.67;11.23;;;;;;;;;;5022051;28;20667;-74
2023/07/28 01:36:26;;;;;;;39.95;12.50;;;;;;;;;;5022011;28;20044;-74
2023/07/28 01:38:53;;;;;;;33.78;12.00;;;;;;;;;;5026721;28;20040;-74
2023/07/28 01:41:19;;;;;;;48.03;13.68;;;;;;;;;;5024026;28;20029;-75
2023/07/28 01:43:45;;;;;;;38.05;10.63;;;;;;;;;;5026092;28;20045;-75
2023/07/28 01:46:11;;;;;;;43.97;9.85;;;;;;;;;;5025220;28;20313;-74
2023/07/28 01:48:38;;;;;;;34.45;10.95;;;;;;;;;;5025269;28;20371;-73
2023/07/28 01:51:04;;;;;;;36.15;11.45;;;;;;;;;;5021526;28;20088;-74
2023/07/28 01:53:30;;;;;;;40.20;13.18;;;;;;;;;;5028334;28;20041;-73
2023/07/28 01:55:56;;;;;;;30.48;10.00;;;;;;;;;;5024991;28;20142;-73
2023/07/28 01:58:22;;;;;;;33.00;9.32;;;;;;;;;;5022964;28;20034;-73
2023/07/28 02:00:48;;;;;;;43.78;10.23;;;;;;;;;;5025802;28;20060;-73
2023/07/28 02:03:14;;;;;;;36.30;8.93;;;;;;;;;;5022440;28;20512;-73
2023/07/28 02:05:40;;;;;;;34.67;9.75;;;;;;;;;;5018504;28;20077;-74
2023/07/28 02:08:06;;;;;;;32.55;8.65;;;;;;;;;;5027680;28;20053;-74
2023/07/28 02:10:32;;;;;;;41.53;8.75;;;;;;;;;;5003196;28;20062;-73
2023/07/28 02:12:58;;;;;;;26.83;7.75;;;;;;;;;;5023698;28;20118;-74
2023/07/28 02:15:24;;;;;;;25.95;7.50;;;;;;;;;;5025712;28;20045;-74
2023/07/28 02:17:50;;;;;;;30.42;8.73;;;;;;;;;;5026677;28;20561;-74
2023/07/28 02:20:16;;;;;;;31.80;7.53;;;;;;;;;;5025364;28;20048;-74
2023/07/28 02:22:43;;;;;;;29.10;6.72;;;;;;;;;;5024205;28;20033;-74
2023/07/28 02:25:10;;;;;;;25.55;7.15;;;;;;;;;;5022594;28;20097;-74
2023/07/28 02:27:36;;;;;;;29.30;7.03;;;;;;;;;;5027800;28;20034;-74
2023/07/28 02:30:02;;;;;;;38.97;8.93;;;;;;;;;;5025175;28;20017;-74
2023/07/28 02:32:29;;;;;;;24.27;6.82;;;;;;;;;;5024726;28;20036;-75
2023/07/28 02:34:55;;;;;;;29.17;8.90;;;;;;;;;;5026200;28;20518;-74
2023/07/28 02:37:21;;;;;;;23.98;6.28;;;;;;;;;;5010350;28;20060;-75
2023/07/28 02:39:47;;;;;;;25.98;6.65;;;;;;;;;;5020845;28;20018;-73
2023/07/28 02:42:13;;;;;;;31.42;8.60;;;;;;;;;;5023452;28;20068;-74
2023/07/28 02:44:39;;;;;;;34.63;9.88;;;;;;;;;;5022181;28;20455;-74
2023/07/28 02:47:06;;;;;;;31.50;9.70;;;;;;;;;;5019920;28;20467;-74
2023/07/28 02:49:32;;;;;;;31.92;7.47;;;;;;;;;;5022308;28;20037;-74
2023/07/28 02:51:58;;;;;;;30.33;7.65;;;;;;;;;;5006116;28;20040;-73
2023/07/28 02:54:25;;;;;;;28.58;7.20;;;;;;;;;;5021994;28;20037;-74
2023/07/28 02:56:51;;;;;;;29.27;8.23;;;;;;;;;;5023959;28;20041;-73
2023/07/28 02:59:17;;;;;;;31.02;8.20;;;;;;;;;;5009988;28;20256;-73
2023/07/28 03:01:43;;;;;;;24.85;6.57;;;;;;;;;;5021995;28;20902;-73
2023/07/28 03:04:09;;;;;;;29.92;7.75;;;;;;;;;;5006452;28;20037;-73
2023/07/28 03:06:35;;;;;;;24.60;6.55;;;;;;;;;;5018305;28;20050;-74
2023/07/28 03:09:01;;;;;;;28.60;6.57;;;;;;;;;;5021711;28;20131;-73
2023/07/28 03:11:27;;;;;;;22.15;6.13;;;;;;;;;;5004750;28;20045;-74
2023/07/28 03:13:53;;;;;;;31.88;6.85;;;;;;;;;;5019405;28;20041;-74
2023/07/28 03:16:19;;;;;;;30.80;6.95;;;;;;;;;;5018428;28;20044;-73
2023/07/28 03:18:45;;;;;;;24.85;6.70;;;;;;;;;;5021825;28;20851;-73
2023/07/28 03:21:11;;;;;;;21.10;5.82;;;;;;;;;;5021653;28;20029;-74
2023/07/28 03:23:37;;;;;;;28.80;6.55;;;;;;;;;;5005961;28;20037;-73
2023/07/28 03:26:03;;;;;;;30.42;6.80;;;;;;;;;;5019280;28;20049;-73
2023/07/28 03:28:30;;;;;;;27.45;6.57;;;;;;;;;;4997755;28;20264;-73
2023/07/28 03:30:56;;;;;;;20.02;6.10;;;;;;;;;;5015203;28;20046;-73
2023/07/28 03:33:22;;;;;;;25.35;6.15;;;;;;;;;;5020092;28;20041;-73
2023/07/28 03:35:48;;;;;;;24.17;6.00;;;;;;;;;;5021371;28;20082;-73
2023/07/28 03:38:14;;;;;;;23.08;5.38;;;;;;;;;;5003327;28;20146;-73
2023/07/28 03:40:40;;;;;;;20.13;5.47;;;;;;;;;;5019975;28;20114;-73
2023/07/28 03:43:06;;;;;;;22.05;5.97;;;;;;;;;;5025407;28;20049;-74
2023/07/28 03:45:32;;;;;;;22.63;5.65;;;;;;;;;;5020447;28;20105;-73
2023/07/28 03:47:58;;;;;;;26.48;6.88;;;;;;;;;;5006084;28;20037;-74
2023/07/28 03:50:26;;;;;;;21.05;6.18;;;;;;;;;;5018538;28;20390;-73
2023/07/28 03:52:52;;;;;;;28.83;5.97;;;;;;;;;;5014823;28;20042;-74
2023/07/28 03:55:18;;;;;;;32.42;7.10;;;;;;;;;;5001408;28;20036;-74
2023/07/28 03:57:44;;;;;;;28.38;6.82;;;;;;;;;;5022100;28;20529;-74
2023/07/28 04:00:11;;;;;;;25.27;6.25;;;;;;;;;;5020366;28;20033;-74
2023/07/28 04:02:37;;;;;;;21.30;5.70;;;;;;;;;;5018831;28;20041;-74
2023/07/28 04:05:03;;;;;;;21.10;6.15;;;;;;;;;;5019340;28;20053;-74
2023/07/28 04:07:29;;;;;;;24.70;6.13;;;;;;;;;;5022628;28;20033;-74
2023/07/28 04:09:55;;;;;;;29.65;5.90;;;;;;;;;;5018318;28;20212;-74
2023/07/28 04:12:21;;;;;;;22.83;5.88;;;;;;;;;;5014764;28;20136;-73
2023/07/28 04:14:47;;;;;;;25.10;5.90;;;;;;;;;;5021484;28;20088;-73
2023/07/28 04:17:13;;;;;;;27.98;6.40;;;;;;;;;;5024615;28;20395;-73
2023/07/28 04:19:39;;;;;;;19.42;5.55;;;;;;;;;;5025589;28;20040;-73
2023/07/28 04:22:05;;;;;;;27.95;6.63;;;;;;;;;;5024082;28;20069;-73
2023/07/28 04:24:31;;;;;;;22.77;6.35;;;;;;;;;;5025112;28;20037;-73
2023/07/28 04:26:58;;;;;;;36.92;7.05;;;;;;;;;;5021161;28;20104;-73
2023/07/28 04:29:24;;;;;;;27.33;6.32;;;;;;;;;;5030212;28;20559;-73
2023/07/28 04:31:50;;;;;;;29.30;6.70;;;;;;;;;;5004265;28;20038;-73
2023/07/28 04:34:16;;;;;;;23.38;6.35;;;;;;;;;;5009811;28;20057;-74
2023/07/28 04:36:42;;;;;;;26.90;7.55;;;;;;;;;;5034283;28;20041;-73
2023/07/28 04:39:08;;;;;;;27.02;5.80;;;;;;;;;;5034364;28;20034;-73
2023/07/28 04:41:34;;;;;;;25.48;7.45;;;;;;;;;;5011214;28;20038;-74
2023/07/28 04:44:00;;;;;;;26.10;6.65;;;;;;;;;;5032882;28;20060;-74
2023/07/28 04:46:26;;;;;;;22.45;6.22;;;;;;;;;;5011898;28;20033;-74
2023/07/28 04:48:52;;;;;;;22.63;6.75;;;;;;;;;;5033983;28;20221;-73
2023/07/28 04:51:18;;;;;;;23.80;6.68;;;;;;;;;;5033703;28;20052;-73
2023/07/28 04:53:44;;;;;;;19.70;6.78;;;;;;;;;;5012899;28;20480;-73
2023/07/28 04:56:10;;;;;;;17.70;6.28;;;;;;;;;;5022255;28;20382;-73
2023/07/28 04:58:36;;;;;;;21.25;6.68;;;;;;;;;;5023078;28;20034;-73
2023/07/28 05:01:03;;;;;;;26.70;6.88;;;;;;;;;;5007827;28;20042;-73
2023/07/28 05:03:29;;;;;;;16.63;6.03;;;;;;;;;;5007419;28;20391;-73
2023/07/28 05:05:55;;;;;;;20.15;6.47;;;;;;;;;;5006751;28;20161;-73
2023/07/28 05:08:21;;;;;;;17.48;6.13;;;;;;;;;;5005942;28;20034;-74
2023/07/28 05:10:47;;;;;;;15.68;6.28;;;;;;;;;;5021442;28;20022;-73
2023/07/28 05:13:13;;;;;;;19.67;6.53;;;;;;;;;;5020874;28;20025;-74
2023/07/28 05:15:39;;;;;;;20.63;5.88;;;;;;;;;;5022549;28;20445;-73
2023/07/28 05:18:05;;;;;;;15.52;6.45;;;;;;;;;;5023950;28;20136;-73
2023/07/28 05:20:31;;;;;;;12.60;5.53;;;;;;;;;;5020573;28;20584;-73
2023/07/28 05:22:57;;;;;;;20.58;6.63;;;;;;;;;;5023546;28;20180;-73
2023/07/28 05:25:23;;;;;;;11.88;5.63;;;;;;;;;;5009197;28;20399;-73
2023/07/28 05:27:49;;;;;;;14.15;5.65;;;;;;;;;;5021678;28;20029;-73
2023/07/28 05:30:15;;;;;;;17.02;6.28;;;;;;;;;;5020907;28;20038;-73
2023/07/28 05:32:42;;;;;;;10.52;6.57;;;;;;;;;;5022570;28;20033;-73
2023/07/28 05:35:08;;;;;;;13.27;5.72;;;;;;;;;;5000332;28;20034;-73
2023/07/28 05:37:34;;;;;;;11.10;6.43;;;;;;;;;;5021494;28;20082;-73
2023/07/28 05:40:00;;;;;;;14.35;7.00;;;;;;;;;;5021869;28;20382;-73
2023/07/28 05:42:26;;;;;;;11.45;5.82;;;;;;;;;;5005984;28;20049;-74
2023/07/28 05:44:54;;;;;;;11.82;6.07;;;;;;;;;;5022148;28;20045;-73
2023/07/28 05:47:20;;;;;;;12.07;6.28;;;;;;;;;;5019227;28;20704;-73
2023/07/28 05:49:46;;;;;;;10.65;6.47;;;;;;;;;;5021180;28;20803;-73
2023/07/28 05:52:12;;;;;;;14.35;6.40;;;;;;;;;;5020998;28;20056;-73
2023/07/28 05:54:38;;;;;;;9.80;6.97;;;;;;;;;;5021333;28;20038;-73
2023/07/28 05:57:05;;;;;;;13.38;6.68;;;;;;;;;;5022114;28;20509;-73
2023/07/28 05:59:31;;;;;;;10.90;7.03;;;;;;;;;;5022651;28;20104;-74
2023/07/28 06:01:57;;;;;;;11.43;6.28;;;;;;;;;;5023654;28;20041;-73
2023/07/28 06:04:23;;;;;;;9.15;6.07;;;;;;;;;;5022371;28;20387;-74
2023/07/28 06:06:49;;;;;;;11.27;6.25;;;;;;;;;;5018106;28;20060;-74
2023/07/28 06:09:15;;;;;;;13.05;5.97;;;;;;;;;;5021690;28;20030;-74
2023/07/28 06:11:41;;;;;;;12.55;5.50;;;;;;;;;;5013319;28;20429;-73
2023/07/28 06:14:07;;;;;;;12.95;6.25;;;;;;;;;;5001850;28;20042;-74
2023/07/28 06:16:33;;;;;;;7.13;5.10;;;;;;;;;;5022253;28;20038;-73
2023/07/28 06:18:59;;;;;;;8.95;5.10;;;;;;;;;;5019559;28;20101;-74
2023/07/28 06:21:25;;;;;;;9.45;4.55;;;;;;;;;;5021056;28;21027;-74
2023/07/28 06:23:51;;;;;;;8.07;4.65;;;;;;;;;;5026953;28;20045;-74
2023/07/28 06:26:17;;;;;;;6.60;4.55;;;;;;;;;;5031095;28;20502;-73
2023/07/28 06:28:43;;;;;;;5.00;4.18;;;;;;;;;;5024345;28;20031;-74
2023/07/28 06:31:10;;;;;;;5.70;4.07;;;;;;;;;;5021991;28;20120;-74
2023/07/28 06:33:36;;;;;;;8.27;4.25;;;;;;;;;;5020495;28;20045;-73
2023/07/28 06:36:02;;;;;;;6.03;3.50;;;;;;;;;;5020200;28;20035;-74
2023/07/28 06:38:29;;;;;;;7.25;3.70;;;;;;;;;;5018781;28;20021;-74
2023/07/28 06:40:55;;;;;;;5.95;3.20;;;;;;;;;;5018921;28;20030;-74
2023/07/28 06:43:21;;;;;;;9.10;3.70;;;;;;;;;;5021600;28;20487;-74
2023/07/28 06:45:47;;;;;;;6.43;3.50;;;;;;;;;;5005108;28;20042;-74
2023/07/28 06:48:14;;;;;;;7.07;4.22;;;;;;;;;;5019999;28;20104;-74
2023/07/28 06:50:40;;;;;;;6.32;4.07;;;;;;;;;;5004345;28;20112;-74
2023/07/28 06:53:06;;;;;;;6.25;3.60;;;;;;;;;;5018838;28;20042;-74
2023/07/28 06:55:32;;;;;;;5.20;3.78;;;;;;;;;;5020307;28;20112;-74
2023/07/28 06:57:58;;;;;;;8.32;4.10;;;;;;;;;;5021279;28;20038;-74
2023/07/28 07:00:24;;;;;;;5.60;4.28;;;;;;;;;;5017275;28;20610;-75
2023/07/28 07:02:50;;;;;;;7.90;4.15;;;;;;;;;;5019755;28;20050;-74
2023/07/28 07:05:16;;;;;;;7.88;4.97;;;;;;;;;;5015075;28;20050;-75
2023/07/28 07:07:42;;;;;;;7.50;4.68;;;;;;;;;;5001821;28;20056;-74
2023/07/28 07:10:09;;;;;;;5.70;4.25;;;;;;;;;;4997696;28;20033;-76
2023/07/28 07:12:35;;;;;;;11.20;7.88;;;;;;;;;;5001793;28;20743;-75
2023/07/28 07:15:01;;;;;;;11.98;5.60;;;;;;;;;;5018456;28;20036;-75
2023/07/28 07:17:27;;;;;;;6.30;3.65;;;;;;;;;;5002727;28;20038;-75
2023/07/28 07:19:53;;;;;;;8.48;4.95;;;;;;;;;;5019320;28;20025;-75
2023/07/28 07:22:19;;;;;;;7.10;4.40;;;;;;;;;;5018546;28;20045;-74
2023/07/28 07:24:47;;;;;;;5.35;4.00;;;;;;;;;;5015470;28;20395;-74
2023/07/28 07:27:13;;;;;;;6.32;4.07;;;;;;;;;;5014640;28;20255;-75
2023/07/28 07:29:39;;;;;;;6.00;3.45;;;;;;;;;;5003714;28;20073;-74
2023/07/28 07:32:06;;;;;;;22.27;17.88;;;;;;;;;;5019376;28;20030;-75
2023/07/28 07:34:32;;;;;;;4.43;2.90;;;;;;;;;;5018381;28;20076;-73
2023/07/28 07:36:58;;;;;;;7.10;2.90;;;;;;;;;;5021339;28;20030;-73
2023/07/28 07:39:24;;;;;;;4.53;2.75;;;;;;;;;;5018631;28;20036;-73
2023/07/28 07:41:50;;;;;;;5.20;3.17;;;;;;;;;;5017830;28;20042;-73
2023/07/28 07:44:16;;;;;;;4.43;2.30;;;;;;;;;;5017784;28;20060;-73
2023/07/28 07:46:42;;;;;;;3.55;2.22;;;;;;;;;;5019882;28;20048;-73
2023/07/28 07:49:08;;;;;;;5.90;2.10;;;;;;;;;;5005257;28;20053;-73
2023/07/28 07:51:34;;;;;;;3.05;1.80;;;;;;;;;;5019635;28;20042;-73
2023/07/28 07:54:03;;;;;;;5.55;2.95;;;;;;;;;;5002027;28;20069;-73
2023/07/28 07:56:29;;;;;;;5.18;2.10;;;;;;;;;;5017305;28;20048;-74
2023/07/28 07:58:55;;;;;;;9.25;2.28;;;;;;;;;;5019541;28;20352;-75
2023/07/28 08:01:21;;;;;;;8.20;3.70;;;;;;;;;;5032225;28;20108;-75
2023/07/28 08:03:48;;;;;;;5.47;2.00;;;;;;;;;;5023435;28;20045;-77
2023/07/28 08:06:14;;;;;;;4.03;1.90;;;;;;;;;;5018885;28;20384;-75
2023/07/28 08:08:40;;;;;;;6.40;1.70;;;;;;;;;;5019756;28;20116;-75
2023/07/28 08:11:07;;;;;;;4.30;2.17;;;;;;;;;;4999122;28;20475;-75
2023/07/28 08:13:33;;;;;;;10.45;2.80;;;;;;;;;;5016815;28;20048;-74
2023/07/28 08:15:59;;;;;;;6.93;2.33;;;;;;;;;;5020118;28;20041;-75
2023/07/28 08:18:25;;;;;;;4.15;2.10;;;;;;;;;;5019107;28;20034;-75
2023/07/28 08:20:51;;;;;;;3.30;1.83;;;;;;;;;;5019043;28;20037;-75
2023/07/28 08:23:17;;;;;;;5.25;2.20;;;;;;;;;;5024852;28;20465;-75
2023/07/28 08:25:43;;;;;;;5.32;2.55;;;;;;;;;;5018954;28;20388;-75
2023/07/28 08:28:09;;;;;;;7.28;2.03;;;;;;;;;;5019275;28;20391;-75
2023/07/28 08:30:36;;;;;;;3.22;2.05;;;;;;;;;;5022976;28;20030;-75
2023/07/28 08:33:02;;;;;;;5.88;1.95;;;;;;;;;;5027061;28;20033;-76
2023/07/28 08:35:28;;;;;;;3.40;1.90;;;;;;;;;;5018746;28;20047;-75
2023/07/28 08:37:55;;;;;;;5.97;1.70;;;;;;;;;;4995288;28;20025;-75
2023/07/28 08:40:21;;;;;;;4.45;1.60;;;;;;;;;;5022493;28;20041;-76
2023/07/28 08:42:49;;;;;;;6.25;1.70;;;;;;;;;;5001015;28;20167;-76
2023/07/28 08:45:15;;;;;;;3.65;1.77;;;;;;;;;;5003438;28;20041;-75
2023/07/28 08:47:41;;;;;;;3.63;1.52;;;;;;;;;;5019922;28;20497;-75
2023/07/28 08:50:07;;;;;;;5.72;1.77;;;;;;;;;;5018637;28;20025;-75
2023/07/28 08:52:33;;;;;;;7.60;2.10;;;;;;;;;;5018922;28;20042;-75
2023/07/28 08:54:59;;;;;;;5.72;1.50;;;;;;;;;;4999416;28;20049;-75
2023/07/28 08:57:25;;;;;;;4.82;2.03;;;;;;;;;;5018947;28;20034;-75
2023/07/28 08:59:53;;;;;;;6.75;1.75;;;;;;;;;;5019476;28;20038;-75
2023/07/28 09:02:20;;;;;;;8.10;1.73;;;;;;;;;;5024843;28;20083;-75
2023/07/28 09:04:46;;;;;;;3.38;1.42;;;;;;;;;;5022399;28;20030;-75
2023/07/28 09:07:13;;;;;;;5.65;2.22;;;;;;;;;;5022137;28;20071;-75
2023/07/28 09:09:40;;;;;;;8.18;2.30;;;;;;;;;;5023659;28;20037;-75
2023/07/28 09:12:07;;;;;;;3.35;1.50;;;;;;;;;;5022179;28;20535;-75
2023/07/28 09:14:35;;;;;;;5.70;1.98;;;;;;;;;;5024544;28;20064;-75
2023/07/28 09:17:12;;;;;;;6.20;2.08;;;;;;;;;;5024691;28;20033;-75
2023/07/28 09:19:59;;;;;;;4.63;1.70;;;;;;;;;;5023733;28;20033;-75
2023/07/28 09:22:25;;;;;;;8.50;1.88;;;;;;;;;;5023243;28;20509;-74
2023/07/28 09:24:51;;;;;;;7.78;2.35;;;;;;;;;;5024032;28;20056;-74
2023/07/28 09:27:21;;;;;;;7.50;3.03;;;;;;;;;;5024885;28;20018;-75
2023/07/28 09:29:51;;;;;;;3.17;1.50;;;;;;;;;;5008747;28;20022;-75
2023/07/28 09:32:28;;;;;;;5.95;2.25;;;;;;;;;;5025881;28;20063;-75
2023/07/28 09:35:07;;;;;;;6.10;1.77;;;;;;;;;;5020938;28;20112;-75
2023/07/28 09:37:33;;;;;;;3.10;1.20;;;;;;;;;;5008256;28;20029;-74
2023/07/28 09:40:00;;;;;;;6.40;1.52;;;;;;;;;;5022876;28;20079;-75
2023/07/28 09:42:27;;;;;;;5.03;1.98;;;;;;;;;;5019581;28;20518;-74
2023/07/28 09:44:53;;;;;;;5.20;1.63;;;;;;;;;;5026282;28;20037;-74
2023/07/28 09:47:20;;;;;;;8.73;2.70;;;;;;;;;;5030428;28;20045;-74
2023/07/28 09:49:48;;;;;;;4.20;1.40;;;;;;;;;;4999406;28;20038;-74
2023/07/28 09:52:17;;;;;;;5.55;1.75;;;;;;;;;;5015588;28;20060;-75
2023/07/28 09:54:43;;;;;;;6.05;1.80;;;;;;;;;;5020507;28;20038;-75
2023/07/28 09:57:14;;;;;;;3.95;2.05;;;;;;;;;;5004348;28;20387;-75
2023/07/28 09:59:42;;;;;;;9.38;2.00;;;;;;;;;;5021839;28;20467;-75
2023/07/28 10:02:10;;;;;;;4.13;1.40;;;;;;;;;;5022477;28;20046;-75
2023/07/28 10:04:36;;;;;;;4.30;1.70;;;;;;;;;;5024291;28;20033;-77
2023/07/28 10:07:02;;;;;;;3.08;1.50;;;;;;;;;;5021801;28;20046;-76
2023/07/28 10:09:33;;;;;;;103.90;85.70;;;;;;;;;;5017761;28;20037;-72
2023/07/28 10:11:59;;;;;;;4.13;1.58;;;;;;;;;;5031725;28;20056;-73
2023/07/28 10:14:37;;;;;;;2.50;1.45;;;;;;;;;;5031649;28;20104;-72
2023/07/28 10:17:04;;;;;;;3.25;1.20;;;;;;;;;;5032372;28;20088;-71
2023/07/28 10:19:30;;;;;;;4.30;1.33;;;;;;;;;;5021567;28;20029;-74
2023/07/28 10:22:02;;;;;;;3.55;1.48;;;;;;;;;;5020403;28;20117;-75
2023/07/28 10:24:47;;;;;;;4.70;1.38;;;;;;;;;;5020305;28;20139;-76
2023/07/28 10:27:28;;;;;;;7.47;1.65;;;;;;;;;;5019780;28;20140;-74
2023/07/28 10:29:59;;;;;;;5.15;0.88;;;;;;;;;;5023248;28;20060;-76
2023/07/28 10:32:29;;;;;;;5.00;1.13;;;;;;;;;;5003614;28;20033;-76
2023/07/28 10:35:22;;;;;;;3.00;1.20;;;;;;;;;;5020489;28;20296;-75
2023/07/28 10:37:49;;;;;;;3.80;1.40;;;;;;;;;;5020848;28;20029;-75
2023/07/28 10:40:34;;;;;;;4.53;2.25;;;;;;;;;;5022360;28;20029;-78
2023/07/28 10:43:01;;;;;;;5.68;1.80;;;;;;;;;;5021576;28;20089;-76
2023/07/28 10:45:28;;;;;;;3.05;1.20;;;;;;;;;;5001320;28;20076;-74
2023/07/28 10:47:55;;;;;;;3.50;1.30;;;;;;;;;;5020316;28;20025;-76
2023/07/28 10:50:22;;;;;;;4.93;1.83;;;;;;;;;;5023294;28;20029;-74
2023/07/28 10:52:48;;;;;;;2.67;1.25;;;;;;;;;;5016203;28;20080;-74
2023/07/28 10:55:25;;;;;;;3.53;1.23;;;;;;;;;;5020986;28;20033;-75
2023/07/28 10:57:51;;;;;;;3.10;1.00;;;;;;;;;;5018553;28;20474;-75
2023/07/28 11:00:21;;;;;;;3.92;2.05;;;;;;;;;;5019629;28;20025;-75
2023/07/28 11:02:54;;;;;;;2.92;1.10;;;;;;;;;;5018573;28;20045;-75
2023/07/28 11:05:25;;;;;;;2.65;1.10;;;;;;;;;;5025112;28;20053;-76
2023/07/28 11:07:54;;;;;;;5.70;1.13;;;;;;;;;;5030596;28;20057;-75
2023/07/28 11:10:20;;;;;;;2.15;1.20;;;;;;;;;;5029438;28;20518;-75
2023/07/28 11:12:48;;;;;;;2.28;1.10;;;;;;;;;;5027008;28;20473;-75
2023/07/28 11:15:15;;;;;;;1.95;0.90;;;;;;;;;;5017232;28;20096;-76
2023/07/28 11:17:42;;;;;;;2.38;1.33;;;;;;;;;;5018381;28;20025;-76
2023/07/28 11:20:17;;;;;;;1.98;1.20;;;;;;;;;;5027119;28;20075;-76
2023/07/28 11:22:46;;;;;;;5.30;1.45;;;;;;;;;;5021966;28;20038;-74
2023/07/28 11:25:13;;;;;;;4.60;1.13;;;;;;;;;;5017981;28;20036;-74
2023/07/28 11:27:39;;;;;;;2.42;1.30;;;;;;;;;;5017987;28;20041;-75
2023/07/28 11:30:09;;;;;;;2.75;1.20;;;;;;;;;;5022935;28;20045;-74
2023/07/28 11:32:36;;;;;;;3.00;1.10;;;;;;;;;;5019245;28;20361;-75
2023/07/28 11:35:06;;;;;;;1.40;1.10;;;;;;;;;;5016845;28;20079;-75
2023/07/28 11:37:34;;;;;;;4.18;1.50;;;;;;;;;;5021275;28;20449;-74
2023/07/28 11:40:00;;;;;;;3.22;2.10;;;;;;;;;;5026247;28;20075;-73
2023/07/28 11:42:27;;;;;;;2.67;1.30;;;;;;;;;;5025465;28;20080;-73
2023/07/28 11:44:53;;;;;;;2.15;1.20;;;;;;;;;;5019372;28;20044;-74
2023/07/28 11:47:19;;;;;;;2.30;1.25;;;;;;;;;;5025105;28;20036;-74
2023/07/28 11:49:50;;;;;;;1.95;1.15;;;;;;;;;;5003914;28;20033;-74
2023/07/28 11:52:16;;;;;;;5.57;1.00;;;;;;;;;;5019595;28;20060;-75
2023/07/28 11:54:44;;;;;;;3.17;1.13;;;;;;;;;;5024003;28;20033;-75
2023/07/28 11:57:11;;;;;;;4.45;1.50;;;;;;;;;;5021951;28;20029;-75
2023/07/28 11:59:37;;;;;;;3.55;1.70;;;;;;;;;;5024359;28;20037;-75
2023/07/28 12:02:07;;;;;;;2.30;0.93;;;;;;;;;;5025841;28;20052;-75
2023/07/28 12:04:37;;;;;;;3.88;1.15;;;;;;;;;;5026425;28;20064;-75
2023/07/28 12:07:08;;;;;;;3.35;1.52;;;;;;;;;;5029129;28;20057;-75
2023/07/28 12:09:51;;;;;;;3.90;1.30;;;;;;;;;;5030420;28;20386;-75
2023/07/28 12:12:17;;;;;;;3.55;1.92;;;;;;;;;;5030828;28;20040;-75
2023/07/28 12:14:46;;;;;;;3.58;1.40;;;;;;;;;;5019061;28;20168;-74
2023/07/28 12:17:17;;;;;;;5.60;1.55;;;;;;;;;;5030390;28;20029;-75
2023/07/28 12:19:59;;;;;;;4.03;1.20;;;;;;;;;;5020824;28;20034;-75
2023/07/28 12:22:29;;;;;;;2.63;1.42;;;;;;;;;;5021206;28;20308;-74
2023/07/28 12:24:55;;;;;;;2.55;1.10;;;;;;;;;;5030421;28;20505;-74
2023/07/28 12:27:23;;;;;;;3.33;1.20;;;;;;;;;;5010837;28;20386;-74
2023/07/28 12:29:50;;;;;;;3.17;1.40;;;;;;;;;;5030426;28;20026;-74
2023/07/28 12:32:16;;;;;;;3.10;1.30;;;;;;;;;;5029761;28;20037;-75
2023/07/28 12:34:42;;;;;;;2.80;1.30;;;;;;;;;;5016248;28;20184;-74
2023/07/28 12:37:08;;;;;;;4.43;1.65;;;;;;;;;;5021600;28;20022;-75
2023/07/28 12:39:41;;;;;;;2.33;1.65;;;;;;;;;;5024634;28;20045;-74
2023/07/28 12:42:08;;;;;;;5.85;2.10;;;;;;;;;;5044542;28;20033;-74
2023/07/28 12:44:34;;;;;;;5.47;2.53;;;;;;;;;;5040701;28;20946;-75
2023/07/28 12:47:00;;;;;;;3.75;2.70;;;;;;;;;;5033795;28;20041;-74
2023/07/28 12:49:28;;;;;;;4.65;2.22;;;;;;;;;;5033586;28;20034;-73
2023/07/28 12:51:56;;;;;;;10.85;2.63;;;;;;;;;;5026058;28;20026;-73
2023/07/28 12:54:22;;;;;;;3.85;1.95;;;;;;;;;;5000050;28;20124;-74
2023/07/28 12:56:48;;;;;;;5.28;2.70;;;;;;;;;;5030056;28;20120;-74
2023/07/28 12:59:14;;;;;;;4.85;2.17;;;;;;;;;;5032400;28;20021;-75
2023/07/28 13:01:40;;;;;;;4.05;2.17;;;;;;;;;;5033660;28;20533;-74
2023/07/28 13:04:06;;;;;;;5.63;2.30;;;;;;;;;;5031032;28;20072;-75
2023/07/28 13:06:33;;;;;;;7.80;2.50;;;;;;;;;;5030315;28;20495;-74
2023/07/28 13:08:59;;;;;;;7.68;2.67;;;;;;;;;;5031921;28;20037;-74
2023/07/28 13:11:25;;;;;;;7.85;3.67;;;;;;;;;;5012830;28;20032;-75
2023/07/28 13:13:51;;;;;;;13.75;4.70;;;;;;;;;;5024800;28;20033;-74
2023/07/28 13:16:17;;;;;;;10.93;4.00;;;;;;;;;;5002101;28;20037;-73
2023/07/28 13:18:43;;;;;;;10.32;4.07;;;;;;;;;;5000279;28;20036;-74
2023/07/28 13:21:10;;;;;;;7.32;3.20;;;;;;;;;;5021099;28;20039;-74
2023/07/28 13:23:37;;;;;;;6.68;3.35;;;;;;;;;;5007124;28;20029;-75
2023/07/28 13:26:06;;;;;;;4.80;2.85;;;;;;;;;;5000894;28;20471;-75
2023/07/28 13:28:34;;;;;;;14.57;8.30;;;;;;;;;;5028166;28;20497;-76
2023/07/28 13:31:02;;;;;;;22.83;17.17;;;;;;;;;;5032802;28;20036;-75
2023/07/28 13:33:28;;;;;;;7.03;3.92;;;;;;;;;;5032390;28;20386;-76
2023/07/28 13:35:54;;;;;;;7.18;3.00;;;;;;;;;;5018492;28;20029;-73
2023/07/28 13:38:20;;;;;;;4.30;2.90;;;;;;;;;;5018781;28;20471;-74
2023/07/28 13:40:46;;;;;;;6.03;3.20;;;;;;;;;;5019932;28;20641;-74
2023/07/28 13:43:12;;;;;;;9.13;3.80;;;;;;;;;;5022161;28;20121;-74
2023/07/28 13:45:38;;;;;;;6.82;3.58;;;;;;;;;;5016356;28;20441;-73
2023/07/28 13:48:04;;;;;;;8.07;3.25;;;;;;;;;;5023236;28;20036;-77
2023/07/28 13:50:30;;;;;;;10.25;3.67;;;;;;;;;;5023002;28;20108;-75
2023/07/28 13:52:56;;;;;;;5.57;3.55;;;;;;;;;;5019560;28;20029;-74
2023/07/28 13:55:22;;;;;;;8.35;3.97;;;;;;;;;;5017860;28;20034;-76
2023/07/28 13:57:48;;;;;;;12.07;8.52;;;;;;;;;;5022182;28;20087;-73
2023/07/28 14:00:15;;;;;;;9.65;6.13;;;;;;;;;;5023200;28;20567;-74
2023/07/28 14:02:41;;;;;;;14.48;3.95;;;;;;;;;;5022155;28;21809;-74
2023/07/28 14:05:07;;;;;;;6.50;4.07;;;;;;;;;;5020749;28;20056;-72
2023/07/28 14:07:34;;;;;;;6.28;3.83;;;;;;;;;;5019701;28;20057;-71
2023/07/28 14:10:00;;;;;;;8.10;4.13;;;;;;;;;;5021049;28;20718;-71
2023/07/28 14:12:26;;;;;;;9.77;4.78;;;;;;;;;;5018190;28;20369;-73
2023/07/28 14:14:52;;;;;;;8.20;4.22;;;;;;;;;;5018900;28;20424;-72
2023/07/28 14:17:18;;;;;;;7.90;3.92;;;;;;;;;;5029562;28;20117;-72
2023/07/28 14:19:44;;;;;;;5.68;3.50;;;;;;;;;;5019480;28;20034;-72
2023/07/28 14:22:10;;;;;;;7.35;4.15;;;;;;;;;;5029437;28;20108;-73
2023/07/28 14:24:36;;;;;;;7.28;3.85;;;;;;;;;;5031957;28;20029;-73
2023/07/28 14:27:03;;;;;;;9.43;3.90;;;;;;;;;;5030105;28;20079;-73
2023/07/28 14:29:29;;;;;;;8.65;3.40;;;;;;;;;;5030378;28;20399;-73
2023/07/28 14:31:55;;;;;;;8.18;4.20;;;;;;;;;;5032058;28;20060;-72
2023/07/28 14:34:21;;;;;;;7.13;4.00;;;;;;;;;;5030488;28;20103;-72